Latest Weather Observations for Telfer

IDW60801

Issued at 10:03 pm WST Wednesday 8 July 2020 (issued every 10 minutes, with the page automatically refreshed every 10 minutes)

About weather observations | Map of weather stations | Latest weather observations for WA | Other Formats
Station Details ID: 013030 Name: TELFER AERO Lat: -21.71 Lon: 122.23 Height: 291.9 m
Data from the previous 72 hours. | See also: Recent months at Telfer
Date/Time
WST
Temp
°C
App
Temp
°C
Dew
Point
°C
Rel
Hum
%
Delta-T
°C
Wind Press
QNH
hPa
Press
MSL
hPa
Rain since
9am
mm
Dir  Spd
km/h
Gust
km/h
Spd
kts
Gust
kts
08/10:00pm 20.3 15.0 -3.4 20 9.9 SSE 15 19 8 10 1017.3 1016.6 0.0
08/09:30pm 21.6 15.5 -3.7 18 10.7 SSE 19 24 10 13 1017.3 1016.6 0.0
08/09:00pm 22.1 16.1 -3.3 18 10.9 S 19 22 10 12 1017.5 1016.8 0.0
08/08:30pm 22.0 16.4 -2.7 19 10.7 S 17 24 9 13 1017.5 1016.8 0.0
08/08:00pm 22.4 17.2 -3.1 18 11.0 S 15 19 8 10 1017.5 1016.8 0.0
08/07:30pm 22.8 17.2 -2.7 18 11.1 S 17 20 9 11 1017.3 1016.6 0.0
08/07:00pm 22.9 17.3 -2.6 18 11.1 S 17 22 9 12 1017.0 1016.3 0.0
08/06:30pm 23.3 17.8 -2.3 18 11.3 S 17 19 9 10 1016.8 1016.0 0.0
08/06:00pm 23.6 18.9 -2.1 18 11.4 S 13 19 7 10 1016.3 1015.6 0.0
08/05:30pm 24.0 18.9 -1.8 18 11.6 S 15 19 8 10 1016.1 1015.4 0.0
08/05:00pm 24.5 19.5 -1.3 18 11.7 SSE 15 19 8 10 1016.0 1015.3 0.0
08/04:30pm 25.4 20.2 -3.1 15 12.6 E 15 19 8 10 1015.8 1015.1 0.0
08/04:00pm 26.3 22.7 -3.3 14 13.1 NE 6 15 3 8 1015.9 1015.2 0.0
08/03:30pm 26.2 21.3 -3.4 14 13.1 E 13 19 7 10 1015.7 1015.0 0.0
08/03:00pm 26.7 22.2 -3.0 14 13.3 NE 11 19 6 10 1015.8 1015.1 0.0
08/02:30pm 26.1 21.2 -3.5 14 13.1 ENE 13 24 7 13 1016.1 1015.4 0.0
08/02:00pm 26.2 22.6 -2.4 15 12.9 E 7 13 4 7 1016.4 1015.7 0.0
08/01:30pm 25.8 21.5 -1.9 16 12.6 E 11 22 6 12 1016.6 1015.9 0.0
08/01:00pm 24.9 21.6 -1.0 18 11.8 ENE 6 15 3 8 1017.3 1016.6 0.0
08/12:30pm 24.4 18.6 -1.4 18 11.7 E 19 26 10 14 1017.6 1016.9 0.0
08/12:00pm 24.5 19.7 0.1 20 11.3 ENE 15 26 8 14 1018.5 1017.8 0.0
08/11:30am 23.8 17.9 -0.5 20 11.1 E 20 30 11 16 1019.1 1018.4 0.0
08/11:00am 23.6 17.6 -1.3 19 11.2 E 20 28 11 15 1019.6 1018.9 0.0
08/10:30am 22.5 16.7 -0.3 22 10.4 E 20 28 11 15 1020.0 1019.4 0.0
08/10:00am 21.7 15.8 -0.9 22 10.1 NE 20 28 11 15 1020.2 1019.6 0.0
08/09:30am 19.4 15.2 -1.1 25 8.9 ENE 11 19 6 10 1020.8 1020.1 0.0
08/09:00am 17.2 12.5 -1.9 27 8.0 E 13 17 7 9 1020.8 1020.1 0.0
08/08:30am 15.3 9.7 -3.1 28 7.4 SE 17 20 9 11 1020.5 1019.8 0.0
08/08:00am 13.7 8.5 -3.1 31 6.6 SE 15 20 8 11 1020.2 1019.6 0.0
08/07:30am 14.0 8.4 -3.3 30 6.8 SSE 17 20 9 11 1020.1 1019.5 0.0
08/07:00am 13.8 8.1 -3.5 30 6.8 SE 17 20 9 11 1019.8 1019.1 0.0
08/06:30am 13.5 8.2 -3.7 30 6.7 SE 15 19 8 10 1019.4 1018.7 0.0
08/06:00am 13.7 8.0 -3.5 30 6.7 SSE 17 20 9 11 1019.4 1018.7 0.0
08/05:30am 12.9 7.1 -4.2 30 6.6 SE 17 19 9 10 1019.1 1018.4 0.0
08/05:00am 13.4 7.6 -4.2 29 6.8 SE 17 20 9 11 1019.0 1018.3 0.0
08/04:30am 13.0 7.2 -4.6 29 6.7 SE 17 20 9 11 1019.0 1018.3 0.0
08/04:00am 11.9 6.4 -5.5 29 6.4 SE 15 17 8 9 1019.3 1018.6 0.0
08/03:30am 13.6 8.1 -5.0 27 7.1 SE 15 19 8 10 1019.3 1018.6 0.0
08/03:00am 14.3 8.5 -4.4 27 7.2 SE 17 20 9 11 1019.5 1018.8 0.0
08/02:30am 13.5 8.1 -4.6 28 6.9 SE 15 17 8 9 1019.5 1018.8 0.0
08/02:00am 11.2 5.7 -5.3 31 6.0 SE 15 17 8 9 1019.7 1019.0 0.0
08/01:30am 11.6 6.5 -4.9 31 6.1 SE 13 15 7 8 1019.7 1019.0 0.0
08/01:00am 11.9 6.8 -5.1 30 6.3 SE 13 15 7 8 1019.9 1019.3 0.0
08/12:30am 12.7 7.6 -5.3 28 6.7 SE 13 17 7 9 1020.0 1019.4 0.0
08/12:00am 16.8 11.0 -4.4 23 8.4 ESE 17 20 9 11 1019.8 1019.1 0.0
 
Date/Time
WST
Temp
°C
App
Temp
°C
Dew
Point
°C
Rel
Hum
%
Delta-T
°C
Wind Press
QNH
hPa
Press
MSL
hPa
Rain since
9am
mm
Dir  Spd
km/h
Gust
km/h
Spd
kts
Gust
kts
07/11:30pm 15.6 10.6 -4.3 25 7.8 ESE 13 17 7 9 1019.8 1019.1 0.0
07/11:00pm 17.7 11.6 -4.3 22 8.8 ESE 19 20 10 11 1019.9 1019.3 0.0
07/10:30pm 16.2 10.8 -4.4 24 8.1 ESE 15 17 8 9 1019.8 1019.1 0.0
07/10:00pm 16.1 10.7 -4.4 24 8.1 SE 15 17 8 9 1019.8 1019.1 0.0
07/09:30pm 16.7 11.3 -4.5 23 8.4 SE 15 17 8 9 1019.9 1019.3 0.0
07/09:00pm 16.1 11.1 -4.4 24 8.1 SE 13 15 7 8 1019.9 1019.3 0.0
07/08:30pm 17.9 12.5 -4.1 22 8.9 SE 15 19 8 10 1019.8 1019.1 0.0
07/08:00pm 18.2 13.2 -4.5 21 9.1 SE 13 15 7 8 1019.8 1019.1 0.0
07/07:30pm 18.4 13.5 -3.7 22 9.1 SE 13 15 7 8 1019.5 1018.8 0.0
07/07:00pm 18.9 14.2 -5.2 19 9.6 SE 11 13 6 7 1019.4 1018.7 0.0
07/06:30pm 19.6 15.0 -3.9 20 9.7 SE 11 13 6 7 1019.0 1018.3 0.0
07/06:00pm 20.4 15.8 -4.0 19 10.1 SE 11 13 6 7 1018.7 1018.0 0.0
07/05:30pm 22.4 17.0 -4.6 16 11.3 ESE 15 17 8 9 1018.4 1017.7 0.0
07/05:00pm 24.8 18.4 -4.5 14 12.5 ESE 20 26 11 14 1018.2 1017.5 0.0
07/04:30pm 25.5 18.5 -3.9 14 12.8 ESE 24 28 13 15 1018.2 1017.5 0.0
07/04:00pm 25.9 19.5 -4.6 13 13.1 E 20 30 11 16 1018.3 1017.6 0.0
07/03:30pm 26.3 20.0 -4.3 13 13.3 E 20 30 11 16 1018.4 1017.7 0.0
07/03:00pm 26.3 20.0 -4.3 13 13.3 E 20 32 11 17 1018.5 1017.8 0.0
07/02:30pm 26.5 19.7 -5.2 12 13.6 ESE 22 32 12 17 1018.5 1017.8 0.0
07/02:00pm 26.0 19.2 -5.6 12 13.4 E 22 35 12 19 1018.7 1018.0 0.0
07/01:30pm 25.8 18.7 -4.7 13 13.1 NE 24 33 13 18 1019.0 1018.3 0.0
07/01:00pm 25.3 18.1 -5.1 13 12.9 NE 24 37 13 20 1019.4 1018.7 0.0
07/12:30pm 25.2 17.3 -5.1 13 12.9 ENE 28 37 15 20 1019.8 1019.1 0.0
07/12:00pm 24.5 16.6 -4.7 14 12.4 NE 28 39 15 21 1020.5 1019.8 0.0
07/11:30am 25.0 17.1 -4.3 14 12.6 NE 28 35 15 19 1021.0 1020.3 0.0
07/11:00am 24.8 17.4 -3.6 15 12.3 E 26 35 14 19 1021.4 1020.7 0.0
07/10:30am 23.6 16.7 -2.8 17 11.6 E 24 33 13 18 1021.9 1021.2 0.0
07/10:00am 22.5 16.0 -2.2 19 10.8 ESE 22 30 12 16 1022.3 1021.6 0.0
07/09:30am 20.5 14.0 -2.5 21 9.9 ESE 22 32 12 17 1022.5 1021.8 0.0
07/09:00am 19.4 13.3 -2.2 23 9.2 ESE 20 28 11 15 1022.5 1021.8 0.0
07/08:30am 17.7 11.8 -2.5 25 8.4 ESE 19 28 10 15 1022.5 1021.8 0.0
07/08:00am 14.9 9.7 -3.0 29 7.2 SE 15 19 8 10 1022.4 1021.7 0.0
07/07:30am 13.0 7.7 -3.3 32 6.4 SE 15 19 8 10 1022.1 1021.4 0.0
07/07:00am 11.6 5.9 -3.7 34 5.8 SE 17 19 9 10 1021.9 1021.2 0.0
07/06:30am 10.7 4.9 -4.9 33 5.7 SE 17 20 9 11 1021.6 1020.9 0.0
07/06:00am 10.6 4.6 -7.1 28 6.1 SE 17 20 9 11 1021.5 1020.8 0.0
07/05:30am 10.9 4.5 -6.4 29 6.2 SE 19 20 10 11 1021.1 1020.4 0.0
07/05:00am 11.3 5.0 -9.6 22 6.9 SE 17 22 9 12 1020.9 1020.2 0.0
07/04:30am 10.4 5.1 -4.0 36 5.4 SE 15 17 8 9 1020.9 1020.2 0.0
07/04:00am 10.6 5.3 -3.8 36 5.4 SE 15 19 8 10 1021.0 1020.3 0.0
07/03:30am 11.8 - - - - SE 17 20 9 11 1020.9 1020.2 0.0
07/03:00am 10.7 5.4 -3.7 36 5.4 SE 15 17 8 9 1021.0 1020.3 0.0
07/02:30am 12.4 7.1 -3.8 32 6.2 SE 15 17 8 9 1021.0 1020.3 0.0
07/02:00am 11.5 6.2 -3.8 34 5.8 SE 15 17 8 9 1020.9 1020.2 0.0
07/01:30am 13.5 8.1 -4.2 29 6.8 SE 15 17 8 9 1021.0 1020.3 0.0
07/01:00am 13.4 8.1 -3.8 30 6.7 SE 15 17 8 9 1021.1 1020.4 0.0
07/12:30am 12.6 7.6 -4.1 31 6.4 SE 13 15 7 8 1021.1 1020.4 0.0
07/12:00am 14.0 9.1 -3.7 29 6.9 SE 13 15 7 8 1021.3 1020.6 0.0
 
Date/Time
WST
Temp
°C
App
Temp
°C
Dew
Point
°C
Rel
Hum
%
Delta-T
°C
Wind Press
QNH
hPa
Press
MSL
hPa
Rain since
9am
mm
Dir  Spd
km/h
Gust
km/h
Spd
kts
Gust
kts
06/11:30pm 14.1 9.1 -4.1 28 7.1 SE 13 15 7 8 1021.4 1020.7 0.0
06/11:00pm 15.9 10.6 -3.6 26 7.8 SE 15 19 8 10 1021.5 1020.8 0.0
06/10:30pm 16.1 10.4 -3.9 25 8.0 SE 17 19 9 10 1021.5 1020.8 0.0
06/10:00pm 15.8 10.9 -3.6 26 7.7 SE 13 15 7 8 1021.4 1020.7 0.0
06/09:30pm 16.1 11.1 -3.9 25 8.0 SE 13 15 7 8 1021.3 1020.6 0.0
06/09:00pm 16.4 11.4 -4.2 24 8.2 SE 13 15 7 8 1021.2 1020.5 0.0
06/08:30pm 17.0 11.6 -4.8 22 8.6 SE 15 17 8 9 1021.2 1020.5 0.0
06/08:00pm 18.0 12.7 -4.0 22 8.9 SE 15 17 8 9 1021.1 1020.4 0.0
06/07:30pm 18.2 12.9 -3.8 22 9.0 SE 15 17 8 9 1021.1 1020.4 0.0
06/07:00pm 19.0 14.1 -3.8 21 9.4 SE 13 15 7 8 1020.8 1020.1 0.0
06/06:30pm 19.5 14.9 -4.0 20 9.7 ESE 11 13 6 7 1020.4 1019.7 0.0
06/06:00pm 20.3 15.3 -4.0 19 10.1 ESE 13 15 7 8 1019.8 1019.1 0.0
06/05:30pm 22.3 17.2 -5.6 15 11.4 ESE 13 17 7 9 1019.5 1018.8 0.0
06/05:00pm 24.9 19.3 -6.4 12 12.9 E 15 22 8 12 1019.1 1018.4 0.0
06/04:30pm 25.9 19.6 -5.6 12 13.4 E 19 28 10 15 1019.0 1018.3 0.0
06/04:00pm 26.0 20.2 -4.5 13 13.2 E 17 26 9 14 1018.8 1018.1 0.0
06/03:30pm 26.5 20.1 -5.2 12 13.6 E 20 28 11 15 1018.7 1018.0 0.0
06/03:00pm 26.2 20.0 -4.4 13 13.3 E 19 28 10 15 1018.7 1018.0 0.0
06/02:30pm 26.8 21.2 -2.9 14 13.3 E 17 24 9 13 1018.9 1018.2 0.0
06/02:00pm 26.1 19.9 -3.5 14 13.0 E 20 28 11 15 1019.2 1018.5 0.0
06/01:30pm 25.9 19.0 -2.7 15 12.8 E 24 32 13 17 1019.3 1018.6 0.0
06/01:00pm 25.5 19.0 -2.1 16 12.4 ENE 22 30 12 16 1019.5 1018.8 0.0
06/12:30pm 25.7 18.8 -2.8 15 12.7 ENE 24 35 13 19 1019.8 1019.1 0.0
06/12:00pm 24.3 15.8 -3.1 16 12.0 ENE 32 41 17 22 1020.1 1019.5 0.0
06/11:30am 23.9 16.6 -2.6 17 11.7 ENE 26 37 14 20 1021.0 1020.3 0.0
06/11:00am 23.8 17.9 -0.5 20 11.1 E 20 28 11 15 1021.6 1020.9 0.0
06/10:30am 21.9 15.2 -0.8 22 10.2 ENE 24 32 13 17 1022.3 1021.6 0.0
06/10:00am 21.4 15.1 -1.2 22 10.0 E 22 30 12 16 1022.6 1021.9 0.0
06/09:30am 20.7 13.9 -1.8 22 9.8 ENE 24 30 13 16 1022.7 1022.0 0.0
06/09:00am 19.7 13.3 -2.0 23 9.3 E 22 28 12 15 1023.0 1022.4 0.0
06/08:30am 18.6 13.1 -1.8 25 8.7 ESE 17 22 9 12 1022.9 1022.3 0.0
06/08:00am 15.4 9.7 -3.5 27 7.5 SE 17 20 9 11 1022.7 1022.0 0.0
06/07:30am 13.6 8.0 -3.2 31 6.6 SE 17 19 9 10 1022.5 1021.8 0.0
06/07:00am 12.0 6.3 -3.4 34 5.9 SE 17 19 9 10 1022.0 1021.3 0.0
06/06:30am 10.5 4.5 -6.3 30 6.0 SE 17 17 9 9 1021.8 1021.1 0.0
06/06:00am 9.5 3.8 -12.9 19 6.7 SE 13 15 7 8 1021.6 1020.9 0.0
06/05:30am 10.7 5.4 -3.4 37 5.4 SE 15 17 8 9 1021.4 1020.7 0.0
06/05:00am 11.5 6.2 -3.4 35 5.7 SE 15 17 8 9 1021.1 1020.4 0.0
06/04:30am 12.4 6.7 -3.4 33 6.1 SE 17 19 9 10 1020.9 1020.2 0.0
06/04:00am 11.8 6.9 -3.5 34 5.9 SE 13 17 7 9 1021.0 1020.3 0.0
06/03:30am 12.5 7.2 -3.3 33 6.1 SE 15 17 8 9 1020.9 1020.2 0.0
06/03:00am 12.3 6.7 -3.1 34 6.0 SE 17 19 9 10 1020.8 1020.1 0.0
06/02:30am 13.1 7.5 -3.2 32 6.4 SE 17 19 9 10 1020.8 1020.1 0.0
06/02:00am 12.9 7.6 -3.4 32 6.3 SE 15 17 8 9 1020.9 1020.2 0.0
06/01:30am 14.4 9.1 -3.4 29 7.1 SE 15 17 8 9 1020.9 1020.2 0.0
06/01:00am 14.4 9.4 -3.9 28 7.1 SE 13 15 7 8 1020.9 1020.2 0.0
06/12:30am 14.0 9.1 -3.7 29 6.9 SE 13 15 7 8 1021.0 1020.3 0.0
06/12:00am 15.0 9.6 -4.3 26 7.5 ESE 15 17 8 9 1020.9 1020.2 0.0
 
Date/Time
WST
Temp
°C
App
Temp
°C
Dew
Point
°C
Rel
Hum
%
Delta-T
°C
Wind Press
QNH
hPa
Press
MSL
hPa
Rain since
9am
mm
Dir  Spd
km/h
Gust
km/h
Spd
kts
Gust
kts
05/11:30pm 15.1 9.8 -3.7 27 7.5 ESE 15 17 8 9 1021.0 1020.3 0.0
05/11:00pm 15.7 10.4 -3.7 26 7.7 ESE 15 19 8 10 1021.0 1020.3 0.0
05/10:30pm 16.4 11.1 -3.7 25 8.1 ESE 15 17 8 9 1021.0 1020.3 0.0

Other formats

Comma delimited format used in spreadsheet applications
http://www.bom.gov.au/fwo/IDW60801/IDW60801.94319.axf

JavaScript Object Notation format (JSON) in row-major order
http://www.bom.gov.au/fwo/IDW60801/IDW60801.94319.json

Data quality

Most of these data are generated automatically and are frequently updated. Quality checks on data are not normally performed. It is possible for incorrect values to appear. Refer to information at About Latest Weather Observations and please check the disclaimer before using these data.